Time;durP1;ratioP1;P1;durP2;ratioP2;P2;SDS_P1;SDS_P2;PMS_P1;PMS_P2;Temp;Humidity;BMP_temperature;BMP_pressure;BME280_temperature;BME280_humidity;BME280_pressure;Samples;Min_cycle;Max_cycle;Signal;HPM_P1;HPM_P2
2021/07/05 00:00:31;;;;;;;1.02;0.80;;;21.50;59.70;;;;;;6276981;28;20071;-74
2021/07/05 00:03:32;;;;;;;3.15;0.63;;;21.50;59.80;;;;;;6275869;28;20336;-74
2021/07/05 00:06:34;;;;;;;0.52;0.52;;;21.40;59.70;;;;;;6299550;28;20578;-74
2021/07/05 00:09:36;;;;;;;7.22;0.75;;;21.50;59.90;;;;;;6301484;28;20446;-74
2021/07/05 00:12:40;;;;;;;1.63;0.80;;;21.40;59.90;;;;;;6317931;28;20110;-74
2021/07/05 00:15:41;;;;;;;2.38;1.00;;;21.40;60.00;;;;;;6283770;28;20037;-74
2021/07/05 00:18:42;;;;;;;1.33;0.70;;;21.40;60.10;;;;;;6300961;28;20102;-73
2021/07/05 00:21:44;;;;;;;6.18;0.85;;;21.40;60.10;;;;;;6300565;28;20445;-73
2021/07/05 00:24:45;;;;;;;1.77;1.00;;;21.40;60.30;;;;;;6301828;28;20468;-74
2021/07/05 00:27:46;;;;;;;0.82;0.70;;;21.30;60.40;;;;;;6317173;28;20043;-74
2021/07/05 00:30:48;;;;;;;0.60;0.57;;;21.30;60.50;;;;;;6302077;28;20028;-74
2021/07/05 00:33:49;;;;;;;2.70;0.63;;;21.30;60.60;;;;;;6301458;28;20052;-74
2021/07/05 00:36:50;;;;;;;0.70;0.60;;;21.20;60.50;;;;;;6301397;28;20041;-74
2021/07/05 00:39:51;;;;;;;0.73;0.73;;;21.20;60.50;;;;;;6300619;28;20480;-74
2021/07/05 00:42:55;;;;;;;1.40;0.93;;;21.20;60.50;;;;;;6283768;28;20055;-75
2021/07/05 00:45:57;;;;;;;3.00;0.70;;;21.20;60.40;;;;;;6316267;28;20124;-74
2021/07/05 00:48:58;;;;;;;2.67;1.10;;;21.20;60.40;;;;;;6300133;28;20041;-74
2021/07/05 00:52:00;;;;;;;0.75;0.65;;;21.20;60.30;;;;;;6299814;28;20043;-74
2021/07/05 00:55:03;;;;;;;1.05;0.60;;;21.30;60.20;;;;;;6299967;28;20384;-75
2021/07/05 00:58:04;;;;;;;0.88;0.80;;;21.30;60.00;;;;;;6300676;28;20047;-73
2021/07/05 01:01:05;;;;;;;2.13;0.75;;;21.30;60.00;;;;;;6299273;28;20036;-74
2021/07/05 01:04:06;;;;;;;1.60;0.80;;;21.30;59.90;;;;;;6283052;28;20029;-74
2021/07/05 01:07:07;;;;;;;0.50;0.50;;;21.30;59.80;;;;;;6298277;28;20082;-74
2021/07/05 01:10:10;;;;;;;2.00;0.82;;;21.30;59.70;;;;;;6299304;28;20124;-75
2021/07/05 01:13:11;;;;;;;1.15;0.80;;;21.30;59.80;;;;;;6316282;28;20041;-74
2021/07/05 01:16:12;;;;;;;1.00;0.50;;;21.30;59.80;;;;;;6299087;28;20426;-74
2021/07/05 01:19:13;;;;;;;10.63;1.08;;;21.30;59.80;;;;;;6299331;28;20107;-72
2021/07/05 01:22:15;;;;;;;1.33;0.73;;;21.30;60.20;;;;;;6278336;28;20347;-72
2021/07/05 01:25:20;;;;;;;0.75;0.60;;;21.30;59.80;;;;;;6274151;28;20029;-73
2021/07/05 01:28:22;;;;;;;2.35;0.85;;;21.30;59.70;;;;;;6275145;28;20028;-73
2021/07/05 01:31:23;;;;;;;1.02;0.70;;;21.30;59.50;;;;;;6297679;28;20119;-73
2021/07/05 01:34:24;;;;;;;3.13;0.70;;;21.30;59.30;;;;;;6298597;28;20029;-72
2021/07/05 01:37:25;;;;;;;1.58;0.70;;;21.40;59.20;;;;;;6298726;28;20086;-73
2021/07/05 01:40:27;;;;;;;0.60;0.60;;;21.40;59.00;;;;;;6298461;28;20036;-73
2021/07/05 01:43:31;;;;;;;1.30;0.60;;;21.40;58.80;;;;;;6299323;28;20048;-73
2021/07/05 01:46:32;;;;;;;1.70;0.50;;;21.30;58.60;;;;;;6297558;28;20119;-73
2021/07/05 01:49:33;;;;;;;2.13;0.73;;;21.40;58.60;;;;;;6287155;28;20033;-72
2021/07/05 01:52:35;;;;;;;1.05;0.80;;;21.50;58.60;;;;;;6257466;28;20159;-73
2021/07/05 01:55:36;;;;;;;3.25;0.80;;;21.50;58.60;;;;;;6272538;28;20097;-73
2021/07/05 01:58:38;;;;;;;2.05;0.80;;;21.50;58.40;;;;;;6280488;28;20063;-74
2021/07/05 02:01:40;;;;;;;1.45;0.95;;;21.50;58.40;;;;;;6289602;28;20032;-75
2021/07/05 02:04:41;;;;;;;6.55;1.00;;;21.50;58.40;;;;;;6315553;28;20035;-73
2021/07/05 02:07:43;;;;;;;1.65;0.73;;;21.50;58.50;;;;;;6323669;28;20051;-72
2021/07/05 02:10:44;;;;;;;1.60;0.80;;;21.50;58.60;;;;;;6323066;28;20096;-72
2021/07/05 02:13:45;;;;;;;1.00;0.70;;;21.50;58.60;;;;;;6306235;28;20036;-72
2021/07/05 02:16:46;;;;;;;2.22;1.13;;;21.60;58.60;;;;;;6324366;28;20072;-73
2021/07/05 02:19:48;;;;;;;2.30;0.80;;;21.60;58.60;;;;;;6281088;28;20037;-73
2021/07/05 02:22:51;;;;;;;3.05;0.90;;;21.60;58.60;;;;;;6274008;28;20117;-73
2021/07/05 02:25:52;;;;;;;1.52;0.90;;;21.60;58.50;;;;;;6298055;28;20115;-73
2021/07/05 02:28:54;;;;;;;2.70;0.88;;;21.60;58.60;;;;;;6300748;28;20040;-73
2021/07/05 02:31:55;;;;;;;2.90;0.90;;;21.60;58.60;;;;;;6285054;28;20119;-73
2021/07/05 02:34:56;;;;;;;3.67;1.13;;;21.60;58.70;;;;;;6260550;28;20044;-73
2021/07/05 02:37:59;;;;;;;2.55;1.00;;;21.60;58.80;;;;;;6263173;28;20092;-73
2021/07/05 02:41:02;;;;;;;0.80;0.80;;;21.60;58.90;;;;;;6302097;28;20033;-74
2021/07/05 02:44:04;;;;;;;6.20;0.80;;;21.50;59.00;;;;;;6298673;28;20055;-73
2021/07/05 02:47:05;;;;;;;3.38;0.80;;;21.60;59.10;;;;;;6280952;28;20036;-75
2021/07/05 02:50:09;;;;;;;4.68;1.08;;;21.50;59.10;;;;;;6297786;28;20041;-74
2021/07/05 02:53:11;;;;;;;3.13;0.77;;;21.50;59.20;;;;;;6314048;28;20047;-74
2021/07/05 02:56:13;;;;;;;1.98;0.77;;;21.50;59.20;;;;;;6297687;28;20041;-74
2021/07/05 02:59:14;;;;;;;0.68;0.63;;;21.50;59.30;;;;;;6280333;28;20047;-74
2021/07/05 03:02:16;;;;;;;0.50;0.50;;;21.50;59.30;;;;;;6296984;28;20035;-74
2021/07/05 03:05:19;;;;;;;0.77;0.70;;;21.50;59.30;;;;;;6313379;28;20040;-74
2021/07/05 03:08:20;;;;;;;9.90;0.80;;;21.40;59.40;;;;;;6297517;28;20024;-73
2021/07/05 03:11:22;;;;;;;2.03;0.80;;;21.40;59.70;;;;;;6296759;28;20064;-74
2021/07/05 03:14:23;;;;;;;2.22;0.90;;;21.30;59.80;;;;;;6298202;28;20035;-74
2021/07/05 03:17:24;;;;;;;1.42;0.60;;;21.30;59.80;;;;;;6313950;28;20029;-74
2021/07/05 03:20:28;;;;;;;1.85;1.30;;;21.20;59.90;;;;;;6296270;28;20354;-74
2021/07/05 03:23:29;;;;;;;1.88;0.85;;;21.20;60.00;;;;;;6298259;28;20078;-74
2021/07/05 03:26:31;;;;;;;1.33;0.60;;;21.10;60.00;;;;;;6280305;28;20406;-74
2021/07/05 03:29:32;;;;;;;4.30;1.00;;;21.10;60.10;;;;;;6297126;28;20120;-74
2021/07/05 03:32:34;;;;;;;3.25;0.63;;;21.10;60.30;;;;;;6312490;28;20094;-74
2021/07/05 03:35:37;;;;;;;1.65;0.75;;;21.00;60.30;;;;;;6280311;28;20044;-74
2021/07/05 03:38:38;;;;;;;0.68;0.57;;;21.00;60.40;;;;;;6298035;28;20450;-74
2021/07/05 03:41:39;;;;;;;3.75;0.80;;;21.00;60.60;;;;;;6317773;28;20037;-74
2021/07/05 03:44:40;;;;;;;2.03;0.90;;;21.00;60.60;;;;;;6284963;28;20361;-74
2021/07/05 03:47:42;;;;;;;1.35;0.80;;;20.90;60.60;;;;;;6284622;28;20412;-74
2021/07/05 03:50:43;;;;;;;1.70;0.80;;;20.90;60.60;;;;;;6301070;28;20517;-74
2021/07/05 03:53:44;;;;;;;4.25;1.10;;;20.90;60.60;;;;;;6317102;28;20450;-74
2021/07/05 03:56:45;;;;;;;2.60;0.88;;;20.90;60.40;;;;;;6281844;28;20039;-74
2021/07/05 03:59:46;;;;;;;3.25;1.27;;;20.90;60.40;;;;;;6292619;28;20041;-74
2021/07/05 04:02:48;;;;;;;1.00;0.70;;;20.90;60.40;;;;;;6284871;28;20200;-74
2021/07/05 04:05:51;;;;;;;2.85;0.95;;;21.00;60.40;;;;;;6317780;28;20036;-74
2021/07/05 04:08:53;;;;;;;2.30;0.80;;;21.00;60.40;;;;;;6300786;28;20033;-74
2021/07/05 04:11:55;;;;;;;1.08;0.80;;;21.00;61.10;;;;;;6300904;28;20127;-74
2021/07/05 04:14:56;;;;;;;2.53;0.80;;;21.00;60.00;;;;;;6302254;28;20040;-74
2021/07/05 04:22:19;;;;;;;3.47;1.10;;;21.00;60.00;;;;;;6284073;28;20054;-74
2021/07/05 04:25:22;;;;;;;9.88;0.90;;;21.00;60.00;;;;;;6301137;28;20381;-74
2021/07/05 04:28:23;;;;;;;3.88;0.95;;;20.90;60.10;;;;;;6301967;28;20428;-74
2021/07/05 04:31:24;;;;;;;1.95;0.80;;;21.00;60.20;;;;;;6300152;28;20089;-74
2021/07/05 04:34:25;;;;;;;0.63;0.60;;;20.90;60.00;;;;;;6295574;28;20094;-74
2021/07/05 04:37:26;;;;;;;1.30;0.80;;;20.90;60.00;;;;;;6275703;28;20040;-74
2021/07/05 04:40:33;;;;;;;0.70;0.70;;;21.00;60.10;;;;;;6275601;28;20043;-72
2021/07/05 04:43:34;;;;;;;1.23;0.70;;;21.00;60.00;;;;;;6294811;28;20116;-73
2021/07/05 04:46:37;;;;;;;1.90;0.82;;;21.10;60.00;;;;;;6299879;28;20036;-74
2021/07/05 04:49:38;;;;;;;5.05;1.20;;;21.10;60.00;;;;;;6299775;28;20056;-73
2021/07/05 04:52:40;;;;;;;1.02;0.60;;;21.10;59.80;;;;;;6282662;28;20103;-73
2021/07/05 04:55:41;;;;;;;0.70;0.70;;;21.20;59.80;;;;;;6301159;28;20060;-73
2021/07/05 04:58:43;;;;;;;0.85;0.70;;;21.20;59.70;;;;;;6316613;28;20036;-73
2021/07/05 05:01:46;;;;;;;2.80;0.90;;;21.20;59.70;;;;;;6299105;28;20381;-74
2021/07/05 05:04:47;;;;;;;4.93;0.90;;;21.30;59.70;;;;;;6333512;28;20162;-74
2021/07/05 05:07:48;;;;;;;3.22;0.70;;;21.30;59.50;;;;;;6300046;28;20123;-73
2021/07/05 05:10:50;;;;;;;2.28;0.90;;;21.40;59.40;;;;;;6316111;28;20040;-74
2021/07/05 05:13:51;;;;;;;2.28;0.90;;;21.40;59.20;;;;;;6300563;28;20381;-74
2021/07/05 05:16:52;;;;;;;0.95;0.80;;;21.50;59.10;;;;;;6298973;28;20040;-73
2021/07/05 05:19:53;;;;;;;2.00;0.70;;;21.50;59.10;;;;;;6300184;28;20354;-74
2021/07/05 05:22:55;;;;;;;1.60;0.80;;;21.50;59.10;;;;;;6299087;28;20063;-74
2021/07/05 05:25:57;;;;;;;0.70;0.70;;;21.50;59.20;;;;;;6316312;28;20036;-74
2021/07/05 05:28:59;;;;;;;5.15;1.10;;;21.60;59.30;;;;;;6265804;28;20476;-74
2021/07/05 05:32:00;;;;;;;4.50;1.20;;;21.60;59.20;;;;;;6276693;28;20041;-74
2021/07/05 05:35:03;;;;;;;3.70;1.30;;;21.60;59.20;;;;;;6281837;28;20044;-74
2021/07/05 05:38:05;;;;;;;3.60;1.00;;;21.60;59.20;;;;;;6298106;28;20029;-74
2021/07/05 05:41:06;;;;;;;1.92;1.17;;;21.60;59.20;;;;;;6282332;28;20040;-74
2021/07/05 05:44:07;;;;;;;5.65;0.80;;;21.60;59.20;;;;;;6298067;28;20094;-74
2021/07/05 05:47:09;;;;;;;2.90;0.77;;;21.60;59.20;;;;;;6298126;28;20402;-74
2021/07/05 05:50:11;;;;;;;3.45;1.17;;;21.60;59.10;;;;;;6298542;28;20036;-74
2021/07/05 05:53:12;;;;;;;3.13;0.68;;;21.50;58.90;;;;;;6283869;28;20041;-74
2021/07/05 05:56:13;;;;;;;2.22;1.30;;;21.50;58.90;;;;;;6256281;28;20067;-74
2021/07/05 05:59:35;;;;;;;2.33;0.90;;;21.50;58.90;;;;;;6297262;28;20044;-74
2021/07/05 06:02:36;;;;;;;8.38;1.17;;;21.40;58.80;;;;;;6272386;28;20037;-74
2021/07/05 06:05:38;;;;;;;5.65;1.00;;;21.50;58.90;;;;;;6296967;28;20039;-74
2021/07/05 06:08:40;;;;;;;1.20;0.70;;;21.50;58.90;;;;;;6297832;28;20089;-73
2021/07/05 06:11:41;;;;;;;2.15;1.00;;;21.60;58.80;;;;;;6295356;28;20133;-74
2021/07/05 06:14:42;;;;;;;2.90;1.20;;;21.70;58.60;;;;;;6296446;28;20044;-73
2021/07/05 06:17:44;;;;;;;2.47;0.90;;;21.80;58.30;;;;;;6297033;28;20032;-74
2021/07/05 06:20:45;;;;;;;8.00;1.30;;;21.80;58.00;;;;;;6296645;28;20068;-74
2021/07/05 06:23:46;;;;;;;2.22;1.27;;;21.90;57.90;;;;;;6295380;28;20032;-74
2021/07/05 06:26:47;;;;;;;5.50;1.38;;;21.90;57.80;;;;;;6278327;28;20048;-74
2021/07/05 06:29:49;;;;;;;3.42;1.08;;;22.00;57.80;;;;;;6313000;28;20043;-72
2021/07/05 06:32:50;;;;;;;4.80;0.93;;;22.10;57.70;;;;;;6297000;28;20498;-74
2021/07/05 06:35:52;;;;;;;2.58;1.20;;;22.30;57.40;;;;;;6294522;28;20051;-74
2021/07/05 06:38:53;;;;;;;5.47;1.40;;;22.30;57.20;;;;;;6292358;28;20032;-73
2021/07/05 06:41:54;;;;;;;2.58;1.30;;;22.50;57.10;;;;;;6282575;28;20036;-73
2021/07/05 06:44:55;;;;;;;2.63;1.35;;;22.70;56.70;;;;;;6271081;28;20389;-73
2021/07/05 06:47:56;;;;;;;8.15;1.80;;;22.90;56.20;;;;;;6270774;28;20116;-73
2021/07/05 06:50:58;;;;;;;3.15;1.65;;;23.10;55.90;;;;;;6273275;28;20379;-74
2021/07/05 06:53:59;;;;;;;4.57;1.10;;;23.30;55.60;;;;;;6295328;28;20037;-73
2021/07/05 06:57:01;;;;;;;3.38;1.10;;;23.50;55.20;;;;;;6294385;28;20343;-74
2021/07/05 07:00:12;;;;;;;1.27;0.88;;;23.50;54.90;;;;;;6312266;28;20097;-74
2021/07/05 07:03:13;;;;;;;3.95;1.02;;;23.70;54.80;;;;;;6295082;28;20036;-74
2021/07/05 07:06:15;;;;;;;1.52;1.15;;;23.70;54.60;;;;;;6295327;28;20033;-74
2021/07/05 07:09:17;;;;;;;5.13;1.40;;;23.70;54.40;;;;;;6295899;28;20046;-74
2021/07/05 07:12:18;;;;;;;6.07;1.38;;;23.80;54.40;;;;;;6294399;28;20072;-75
2021/07/05 07:15:23;;;;;;;3.85;1.42;;;23.80;54.30;;;;;;6298345;28;20044;-74
2021/07/05 07:21:31;;;;;;;3.25;1.17;;;23.80;53.90;;;;;;6299529;28;20446;-73
2021/07/05 07:24:32;;;;;;;2.67;1.30;;;23.80;53.90;;;;;;6300788;28;20033;-73
2021/07/05 07:27:34;;;;;;;1.70;0.90;;;23.70;53.80;;;;;;6300091;28;20116;-75
2021/07/05 07:30:36;;;;;;;4.18;1.40;;;23.70;53.90;;;;;;6299422;28;20040;-75
2021/07/05 07:33:37;;;;;;;8.38;1.17;;;23.70;54.10;;;;;;6314055;28;20369;-74
2021/07/05 07:36:40;;;;;;;3.65;1.08;;;23.70;54.10;;;;;;6324379;28;20081;-74
2021/07/05 07:39:45;;;;;;;8.40;1.13;;;23.80;54.10;;;;;;6325023;28;20400;-75
2021/07/05 07:42:47;;;;;;;6.97;1.67;;;23.70;54.10;;;;;;6306783;28;20135;-75
2021/07/05 07:45:49;;;;;;;3.28;1.48;;;23.70;53.90;;;;;;6307208;28;20039;-73
2021/07/05 07:48:50;;;;;;;2.15;1.42;;;23.80;53.70;;;;;;6324555;28;20417;-73
2021/07/05 07:51:51;;;;;;;5.45;1.20;;;23.80;53.60;;;;;;6313372;28;20043;-74
2021/07/05 07:54:53;;;;;;;4.95;1.10;;;23.90;53.60;;;;;;6300096;28;20379;-75
2021/07/05 07:57:54;;;;;;;7.32;1.33;;;23.90;53.50;;;;;;6298064;28;20345;-74
2021/07/05 08:00:55;;;;;;;11.07;1.40;;;24.00;53.40;;;;;;6278500;28;20037;-74
2021/07/05 08:03:56;;;;;;;2.08;1.20;;;24.00;53.30;;;;;;6291614;28;20367;-75
2021/07/05 08:06:58;;;;;;;6.43;1.65;;;24.20;53.30;;;;;;6316503;28;20037;-75
2021/07/05 08:09:59;;;;;;;5.55;1.25;;;24.30;53.10;;;;;;6299604;28;20032;-74
2021/07/05 08:13:03;;;;;;;5.75;1.23;;;24.40;52.80;;;;;;6301311;28;20032;-74
2021/07/05 08:16:04;;;;;;;3.63;1.38;;;24.50;52.70;;;;;;6301313;28;20365;-74
2021/07/05 08:19:05;;;;;;;7.40;1.40;;;24.60;52.50;;;;;;6318627;28;20089;-75
2021/07/05 08:22:06;;;;;;;12.93;1.60;;;24.70;52.30;;;;;;6302341;28;20426;-74
2021/07/05 08:25:08;;;;;;;5.32;1.15;;;24.90;52.30;;;;;;6284604;28;20029;-74
2021/07/05 08:28:10;;;;;;;4.55;1.35;;;25.00;52.00;;;;;;6299353;28;20039;-76
2021/07/05 08:31:11;;;;;;;3.30;1.52;;;25.10;51.70;;;;;;6298891;28;20044;-74
2021/07/05 08:34:13;;;;;;;7.80;1.92;;;25.10;51.50;;;;;;6298745;28;20395;-74
2021/07/05 08:37:14;;;;;;;3.55;1.70;;;25.10;51.50;;;;;;6315751;28;20039;-74
2021/07/05 08:40:16;;;;;;;2.55;1.15;;;25.10;51.50;;;;;;6300037;28;20037;-74
2021/07/05 08:43:25;;;;;;;3.53;1.25;;;25.10;51.40;;;;;;6298728;28;20071;-74
2021/07/05 08:46:26;;;;;;;1.27;1.05;;;25.20;51.20;;;;;;6299542;28;20050;-74
2021/07/05 08:49:27;;;;;;;7.38;1.33;;;25.20;51.20;;;;;;6299731;28;20131;-75
2021/07/05 08:52:33;;;;;;;15.75;3.88;;;25.30;51.10;;;;;;6284903;28;20374;-74
2021/07/05 08:55:34;;;;;;;24.98;4.25;;;25.40;50.70;;;;;;6286597;28;20036;-74
2021/07/05 08:58:39;;;;;;;11.85;2.15;;;25.50;50.50;;;;;;6286179;28;20067;-74
2021/07/05 09:01:40;;;;;;;6.55;1.60;;;25.70;50.20;;;;;;6284493;28;20603;-75
2021/07/05 09:04:42;;;;;;;6.45;1.38;;;25.80;49.40;;;;;;6299518;28;20056;-74
2021/07/05 09:07:55;;;;;;;8.68;2.50;;;25.90;49.10;;;;;;6299047;28;20084;-74
2021/07/05 09:10:56;;;;;;;5.40;2.50;;;26.00;48.80;;;;;;6298321;28;20036;-74
2021/07/05 09:13:57;;;;;;;8.77;3.60;;;26.10;48.70;;;;;;6298274;28;20043;-74
2021/07/05 09:21:24;;;;;;;20.33;9.70;;;26.10;48.50;;;;;;6270114;28;20413;-73
2021/07/05 09:24:45;;;;;;;16.38;6.78;;;26.20;48.50;;;;;;6286649;28;20048;-75
2021/07/05 09:27:47;;;;;;;5.45;1.85;;;26.20;48.40;;;;;;6290469;28;20052;-74
2021/07/05 09:30:51;;;;;;;5.28;2.00;;;26.30;48.40;;;;;;6292803;28;20098;-74
2021/07/05 09:33:52;;;;;;;5.28;1.17;;;26.50;48.30;;;;;;6291703;28;20103;-73
2021/07/05 09:36:57;;;;;;;1.75;1.20;;;26.70;48.00;;;;;;6320683;28;20469;-74
2021/07/05 09:40:05;;;;;;;6.32;1.67;;;26.60;47.80;;;;;;6321379;28;20040;-74
2021/07/05 09:43:28;;;;;;;1.52;1.30;;;26.50;47.90;;;;;;6320547;28;20087;-74
2021/07/05 09:46:55;;;;;;;13.57;2.53;;;26.50;48.30;;;;;;6321247;28;20055;-75
2021/07/05 09:50:05;;;;;;;1.50;1.02;;;26.50;48.40;;;;;;6303799;28;20046;-75
2021/07/05 09:53:30;;;;;;;3.25;1.25;;;26.70;48.20;;;;;;6320902;28;20123;-74
2021/07/05 09:56:31;;;;;;;3.80;1.48;;;26.70;47.10;;;;;;6317182;28;20040;-74
2021/07/05 09:59:33;;;;;;;6.13;2.40;;;26.80;46.50;;;;;;6312308;28;20029;-74
2021/07/05 10:02:37;;;;;;;3.70;1.50;;;26.80;46.00;;;;;;6268849;28;20387;-74
2021/07/05 10:05:47;;;;;;;6.45;1.70;;;26.90;46.00;;;;;;6251124;28;20122;-74
2021/07/05 10:08:49;;;;;;;3.47;1.30;;;26.90;45.70;;;;;;6297193;28;20032;-74
2021/07/05 10:11:50;;;;;;;6.28;1.90;;;27.00;45.50;;;;;;6292552;28;20040;-74
2021/07/05 10:15:04;;;;;;;1.50;1.27;;;27.10;45.60;;;;;;6292377;28;20050;-73
2021/07/05 10:18:05;;;;;;;7.88;1.92;;;27.20;45.40;;;;;;6292289;28;20036;-74
2021/07/05 10:21:07;;;;;;;6.80;3.00;;;27.30;45.00;;;;;;6264138;28;20037;-74
2021/07/05 10:24:09;;;;;;;2.83;1.17;;;27.40;44.90;;;;;;6290679;28;20207;-74
2021/07/05 10:27:11;;;;;;;4.35;1.50;;;27.50;44.80;;;;;;6276024;28;20173;-74
2021/07/05 10:30:14;;;;;;;3.53;1.30;;;27.60;44.60;;;;;;6251026;28;20040;-74
2021/07/05 10:33:15;;;;;;;1.20;0.80;;;27.60;44.00;;;;;;6268326;28;20400;-75
2021/07/05 10:36:17;;;;;;;4.35;1.20;;;27.60;43.60;;;;;;6283504;28;20040;-74
2021/07/05 10:39:20;;;;;;;1.98;1.00;;;27.60;43.80;;;;;;6293005;28;20515;-73
2021/07/05 10:42:32;;;;;;;0.82;0.80;;;27.70;43.80;;;;;;6292202;28;20024;-75
2021/07/05 10:45:41;;;;;;;1.65;1.20;;;27.70;43.70;;;;;;6292042;28;20024;-74
2021/07/05 10:48:43;;;;;;;3.80;0.90;;;27.80;43.50;;;;;;6290946;28;20043;-74
2021/07/05 10:51:45;;;;;;;2.63;1.40;;;27.80;43.60;;;;;;6290815;28;20033;-74
2021/07/05 10:54:53;;;;;;;3.80;1.20;;;28.00;43.70;;;;;;6291853;28;20041;-74
2021/07/05 10:57:55;;;;;;;1.33;1.00;;;28.20;43.30;;;;;;6291357;28;20063;-74
2021/07/05 11:01:06;;;;;;;5.82;1.30;;;28.50;43.00;;;;;;6291409;28;20037;-74
2021/07/05 11:04:25;;;;;;;2.05;1.20;;;28.70;42.40;;;;;;6308720;28;20036;-74
2021/07/05 11:07:47;;;;;;;1.40;1.20;;;29.00;42.00;;;;;;6316694;28;20048;-75
2021/07/05 11:11:11;;;;;;;1.30;1.08;;;29.30;41.30;;;;;;6317187;28;20032;-74
2021/07/05 11:14:17;;;;;;;3.08;1.10;;;29.60;41.00;;;;;;6315845;28;20040;-74
2021/07/05 11:17:21;;;;;;;2.83;1.17;;;30.50;39.90;;;;;;6316289;28;20065;-75
2021/07/05 11:20:22;;;;;;;6.15;1.15;;;31.40;38.70;;;;;;6314241;28;20110;-75
2021/07/05 11:23:23;;;;;;;4.32;1.40;;;31.90;37.60;;;;;;6315658;28;20465;-75
2021/07/05 11:26:33;;;;;;;0.98;0.90;;;32.30;37.00;;;;;;6315129;28;20032;-74
2021/07/05 11:29:45;;;;;;;1.75;1.00;;;32.50;36.70;;;;;;6271708;28;20044;-74
2021/07/05 11:33:10;;;;;;;6.30;2.80;;;33.30;35.40;;;;;;6307301;28;20043;-74
2021/07/05 11:36:21;;;;;;;2.03;1.15;;;34.30;34.00;;;;;;6246079;28;20037;-74
2021/07/05 11:39:30;;;;;;;2.15;1.20;;;35.00;33.10;;;;;;6305456;28;20382;-74
2021/07/05 11:42:31;;;;;;;2.75;1.38;;;35.90;32.20;;;;;;6273904;28;20038;-74
2021/07/05 11:45:44;;;;;;;1.80;1.00;;;36.50;31.10;;;;;;6292026;28;20073;-74
2021/07/05 11:48:46;;;;;;;1.77;1.10;;;37.00;30.20;;;;;;6290970;28;20024;-74
2021/07/05 11:51:54;;;;;;;3.83;1.30;;;37.60;29.80;;;;;;6292874;28;20454;-75
2021/07/05 11:55:00;;;;;;;1.95;0.98;;;38.10;29.20;;;;;;6292838;28;20102;-75
2021/07/05 11:58:09;;;;;;;2.33;1.55;;;38.60;28.60;;;;;;6309041;28;20032;-75
2021/07/05 12:01:11;;;;;;;2.35;1.30;;;38.80;28.20;;;;;;6290520;28;20075;-75
2021/07/05 12:04:14;;;;;;;2.00;1.02;;;38.90;27.80;;;;;;6260955;28;20095;-76
2021/07/05 12:07:21;;;;;;;4.85;1.23;;;38.70;27.70;;;;;;6279839;28;20029;-75
2021/07/05 12:10:28;;;;;;;3.17;1.20;;;38.60;27.80;;;;;;6294961;28;20060;-75
2021/07/05 12:13:29;;;;;;;5.30;1.05;;;38.80;27.60;;;;;;6296299;28;20068;-76
2021/07/05 12:16:30;;;;;;;2.20;0.90;;;39.10;27.30;;;;;;6313911;28;20414;-74
2021/07/05 12:19:34;;;;;;;1.48;1.00;;;39.10;27.40;;;;;;6295994;28;20029;-74
2021/07/05 12:22:37;;;;;;;5.80;1.20;;;39.30;27.80;;;;;;6300778;28;20438;-74
2021/07/05 12:25:39;;;;;;;3.10;1.10;;;39.30;27.30;;;;;;6297677;28;20047;-75
2021/07/05 12:29:13;;;;;;;1.15;1.02;;;39.30;27.40;;;;;;6294523;28;20040;-74
2021/07/05 12:32:25;;;;;;;1.45;0.90;;;39.30;27.70;;;;;;6295491;28;20082;-74
2021/07/05 12:35:29;;;;;;;4.38;1.65;;;39.50;27.80;;;;;;6294727;28;20040;-75
2021/07/05 12:38:30;;;;;;;0.90;0.85;;;39.60;27.50;;;;;;6296754;28;20032;-74
2021/07/05 12:41:36;;;;;;;2.47;1.13;;;39.70;27.50;;;;;;6313320;28;20039;-74
2021/07/05 12:44:38;;;;;;;3.92;1.08;;;40.00;27.60;;;;;;6294208;28;20068;-75
2021/07/05 12:48:05;;;;;;;1.80;1.30;;;40.10;27.20;;;;;;6278759;28;20115;-74
2021/07/05 12:51:07;;;;;;;9.75;0.90;;;40.20;27.20;;;;;;6274856;28;20043;-75
2021/07/05 12:54:21;;;;;;;1.65;0.93;;;40.30;26.70;;;;;;6282206;28;20131;-74
2021/07/05 12:57:23;;;;;;;1.48;0.88;;;40.40;26.20;;;;;;6293173;28;20426;-74
2021/07/05 13:00:27;;;;;;;1.20;0.95;;;40.80;25.70;;;;;;6293452;28;20066;-73
2021/07/05 13:03:30;;;;;;;4.63;1.02;;;41.10;25.40;;;;;;6297295;28;20457;-74
2021/07/05 13:06:51;;;;;;;1.00;0.88;;;41.30;24.80;;;;;;6269408;28;20148;-74
2021/07/05 13:10:06;;;;;;;2.83;1.10;;;41.60;24.60;;;;;;6269086;28;20115;-74
2021/07/05 13:13:12;;;;;;;2.75;1.00;;;41.80;24.40;;;;;;6245633;28;20029;-74
2021/07/05 13:16:17;;;;;;;8.50;0.80;;;42.30;24.10;;;;;;6227607;28;20037;-75
2021/07/05 13:19:20;;;;;;;4.18;0.90;;;42.90;23.20;;;;;;6269329;28;20063;-74
2021/07/05 13:22:25;;;;;;;2.10;0.80;;;43.40;22.20;;;;;;6270070;28;20504;-74
2021/07/05 13:25:26;;;;;;;0.60;0.60;;;44.10;21.60;;;;;;6300199;28;20346;-75
2021/07/05 13:28:28;;;;;;;3.10;0.80;;;44.80;21.00;;;;;;6250646;28;20052;-75
2021/07/05 13:31:37;;;;;;;2.58;0.80;;;45.20;20.20;;;;;;6270725;28;20037;-75
2021/07/05 13:34:42;;;;;;;1.92;0.75;;;45.60;19.90;;;;;;6316812;28;20071;-75
2021/07/05 13:37:47;;;;;;;3.70;0.77;;;45.80;19.80;;;;;;6319410;28;20429;-75
2021/07/05 13:40:51;;;;;;;1.73;0.77;;;46.30;19.60;;;;;;6320214;28;20433;-75
2021/07/05 13:43:55;;;;;;;2.88;0.70;;;46.80;19.00;;;;;;6319020;28;20028;-74
2021/07/05 13:47:24;;;;;;;8.15;0.77;;;47.30;18.50;;;;;;6319875;28;20086;-75
2021/07/05 13:50:34;;;;;;;1.30;0.88;;;47.60;18.30;;;;;;6319937;28;20364;-74
2021/07/05 13:53:40;;;;;;;1.52;0.68;;;48.00;17.90;;;;;;6314765;28;20331;-75
2021/07/05 13:56:41;;;;;;;3.63;0.77;;;48.40;17.50;;;;;;6293417;28;20043;-75
2021/07/05 13:59:42;;;;;;;3.78;0.80;;;48.80;17.30;;;;;;6294586;28;20048;-75
2021/07/05 14:02:45;;;;;;;2.53;0.73;;;49.10;17.10;;;;;;6293999;28;20457;-75
2021/07/05 14:05:50;;;;;;;1.00;0.80;;;49.60;16.90;;;;;;6294284;28;20078;-75
2021/07/05 14:08:52;;;;;;;0.93;0.80;;;50.20;16.60;;;;;;6278030;28;20040;-74
2021/07/05 14:11:53;;;;;;;4.50;1.20;;;50.70;16.30;;;;;;6294241;28;20020;-75
2021/07/05 14:14:55;;;;;;;2.55;0.60;;;51.10;16.00;;;;;;6292304;28;20064;-75
2021/07/05 14:17:57;;;;;;;1.17;0.70;;;51.50;15.80;;;;;;6295531;28;20100;-75
2021/07/05 14:20:58;;;;;;;3.25;0.80;;;51.70;15.70;;;;;;6309536;28;20033;-75
2021/07/05 14:24:00;;;;;;;2.05;0.73;;;51.70;15.50;;;;;;6294300;28;20120;-76
2021/07/05 14:27:01;;;;;;;30.15;1.75;;;51.70;15.40;;;;;;6294079;28;20032;-74
2021/07/05 14:30:05;;;;;;;12.68;0.80;;;51.90;15.40;;;;;;6277296;28;20470;-75
2021/07/05 14:33:07;;;;;;;9.07;1.00;;;52.20;15.30;;;;;;6302622;28;20039;-75
2021/07/05 14:36:11;;;;;;;11.23;0.80;;;52.40;15.00;;;;;;6302166;28;20424;-74
2021/07/05 14:39:12;;;;;;;1.58;0.70;;;52.50;14.80;;;;;;6318646;28;20032;-75
2021/07/05 14:42:14;;;;;;;0.75;0.68;;;52.30;14.80;;;;;;6316598;28;20111;-75
2021/07/05 14:45:16;;;;;;;2.83;0.60;;;52.10;14.80;;;;;;6318703;28;20032;-75
2021/07/05 14:48:17;;;;;;;1.08;0.68;;;51.80;14.90;;;;;;6315881;28;20207;-75
2021/07/05 14:51:18;;;;;;;1.02;0.85;;;51.50;14.90;;;;;;6318308;28;20098;-74
2021/07/05 14:54:22;;;;;;;7.20;0.70;;;51.60;14.90;;;;;;6286259;28;20052;-74
2021/07/05 14:57:25;;;;;;;0.90;0.70;;;51.40;14.90;;;;;;6261167;28;20108;-74
2021/07/05 15:00:29;;;;;;;0.55;0.50;;;51.40;15.00;;;;;;6294809;28;20100;-74
2021/07/05 15:03:31;;;;;;;3.05;0.75;;;51.30;15.00;;;;;;6294984;28;20044;-74
2021/07/05 15:06:32;;;;;;;1.08;0.68;;;51.10;15.00;;;;;;6295070;28;20135;-74
2021/07/05 15:09:34;;;;;;;1.13;0.70;;;51.00;15.00;;;;;;6294691;28;20047;-75
2021/07/05 15:12:36;;;;;;;4.05;0.70;;;51.10;15.00;;;;;;6310860;28;20125;-75
2021/07/05 15:15:37;;;;;;;2.30;0.75;;;51.10;14.90;;;;;;6278135;28;20033;-75
2021/07/05 15:18:38;;;;;;;2.35;0.68;;;50.90;15.00;;;;;;6292346;28;20040;-75
2021/07/05 15:21:40;;;;;;;4.35;0.65;;;50.60;15.10;;;;;;6294419;28;20171;-75
2021/07/05 15:24:41;;;;;;;0.65;0.65;;;49.80;15.40;;;;;;6294482;28;20033;-75
2021/07/05 15:32:05;;;;;;;2.30;1.00;;;49.10;16.20;;;;;;6294685;28;20032;-74
2021/07/05 15:35:08;;;;;;;2.38;0.60;;;49.20;16.30;;;;;;6296533;28;20048;-75
2021/07/05 15:38:14;;;;;;;2.17;0.70;;;49.10;16.30;;;;;;6299990;28;20051;-74
2021/07/05 15:41:17;;;;;;;7.15;0.90;;;49.10;16.30;;;;;;6300475;28;20040;-75
2021/07/05 15:44:18;;;;;;;1.17;0.80;;;48.80;16.40;;;;;;6300196;28;20029;-74
2021/07/05 15:47:19;;;;;;;0.60;0.60;;;48.80;16.50;;;;;;6317074;28;20369;-75
2021/07/05 15:50:21;;;;;;;4.03;1.08;;;48.80;16.50;;;;;;6300670;28;20032;-75
2021/07/05 15:53:22;;;;;;;0.80;0.80;;;48.70;16.50;;;;;;6298819;28;20090;-75
2021/07/05 15:56:23;;;;;;;8.00;1.00;;;48.50;16.50;;;;;;6299566;28;20036;-75
2021/07/05 15:59:24;;;;;;;9.25;1.23;;;48.30;16.50;;;;;;6300434;28;20032;-74
2021/07/05 16:02:25;;;;;;;69.78;3.40;;;48.10;16.60;;;;;;6281826;28;20078;-74
2021/07/05 16:05:27;;;;;;;2.08;0.70;;;48.10;16.70;;;;;;6298711;28;20020;-74
2021/07/05 16:08:29;;;;;;;8.25;0.90;;;48.10;16.70;;;;;;6298480;28;20420;-74